createdAt,value
2022-12-19T00:02:07.667Z,103052.09
2022-12-19T00:04:36.300Z,103045.94
2022-12-19T00:07:10.024Z,103053.78
2022-12-19T00:09:39.491Z,103052.03
2022-12-19T00:12:06.831Z,103052.09
2022-12-19T00:14:35.886Z,103055.53
2022-12-19T00:17:03.098Z,103052.09
2022-12-19T00:19:54.524Z,103052.97
2022-12-19T00:22:25.273Z,103046.94
2022-12-19T00:24:52.287Z,103058.31
2022-12-19T00:27:19.475Z,103061.84
2022-12-19T00:29:46.571Z,103057.47
2022-12-19T00:32:16.772Z,103051.34
2022-12-19T00:34:44.027Z,103061.75
2022-12-19T00:37:14.248Z,103063.47
2022-12-19T00:39:49.681Z,103068.66
2022-12-19T00:42:16.866Z,103062.53
2022-12-19T00:44:45.441Z,103064.28
2022-12-19T00:47:12.884Z,103071.22
2022-12-19T00:49:39.739Z,103068.59
2022-12-19T00:52:09.096Z,103075.59
2022-12-19T00:54:36.496Z,103073.91
2022-12-19T00:57:05.541Z,103073.97
2022-12-19T00:59:35.533Z,103053.09
2022-12-19T01:02:03.623Z,103067.03
2022-12-19T01:04:32.640Z,103061.84
2022-12-19T01:07:09.554Z,103067.97
2022-12-19T01:09:41.202Z,103058.41
2022-12-19T01:12:30.539Z,103060.16
2022-12-19T01:15:04.469Z,103052.41
2022-12-19T01:17:44.209Z,103056.75
2022-12-19T01:20:14.663Z,103052.41
2022-12-19T01:22:44.736Z,103055.00
2022-12-19T01:25:13.611Z,103054.13
2022-12-19T01:27:47.556Z,103058.47
2022-12-19T01:30:14.566Z,103048.88
2022-12-19T01:32:43.528Z,103045.38
2022-12-19T01:35:13.412Z,103047.09
2022-12-19T01:37:50.404Z,103052.38
2022-12-19T01:40:17.471Z,103032.44
2022-12-19T01:42:48.399Z,103041.09
2022-12-19T01:45:33.762Z,103035.03
2022-12-19T01:48:15.513Z,103038.53
2022-12-19T01:51:00.973Z,103033.31
2022-12-19T01:53:49.279Z,103031.53
2022-12-19T01:56:19.639Z,103030.66
2022-12-19T01:58:56.579Z,103031.50
2022-12-19T02:01:33.212Z,103032.34
2022-12-19T02:04:03.610Z,103034.09
2022-12-19T02:06:31.370Z,103038.44
2022-12-19T02:08:58.628Z,103041.06
2022-12-19T02:11:25.547Z,103036.72
2022-12-19T02:13:54.114Z,103041.97
2022-12-19T02:16:31.187Z,103040.22
2022-12-19T02:19:09.797Z,103042.03
2022-12-19T02:21:55.965Z,103048.16
2022-12-19T02:25:00.049Z,103057.75
2022-12-19T02:27:42.191Z,103058.63
2022-12-19T02:30:17.725Z,103047.34
2022-12-19T02:33:00.071Z,103057.81
2022-12-19T02:35:34.449Z,103056.94
2022-12-19T02:38:13.489Z,103052.63
2022-12-19T02:40:50.049Z,103056.09
2022-12-19T02:43:24.104Z,103052.59
2022-12-19T02:45:54.818Z,103054.38
2022-12-19T02:48:24.396Z,103047.41
2022-12-19T02:50:53.823Z,103062.16
2022-12-19T02:53:25.386Z,103059.56
2022-12-19T02:56:11.275Z,103060.44
2022-12-19T02:58:53.412Z,103060.44
2022-12-19T03:01:40.240Z,103046.53
2022-12-19T03:04:17.534Z,103043.03
2022-12-19T03:06:53.947Z,103015.31
2022-12-19T03:09:30.397Z,103046.56
2022-12-19T03:12:03.380Z,103038.72
2022-12-19T03:14:33.011Z,103042.25
2022-12-19T03:17:08.191Z,103046.59
2022-12-19T03:19:39.383Z,103046.66
2022-12-19T03:22:08.086Z,103053.56
2022-12-19T03:24:38.703Z,103053.59
2022-12-19T03:27:13.530Z,103041.41
2022-12-19T03:29:50.564Z,103045.81
2022-12-19T03:32:23.217Z,103038.84
2022-12-19T03:34:57.218Z,103038.84
2022-12-19T03:37:28.727Z,103044.94
2022-12-19T03:40:00.229Z,103033.66
2022-12-19T03:42:53.279Z,103028.44
2022-12-19T03:45:29.341Z,103038.00
2022-12-19T03:48:04.191Z,103042.38
2022-12-19T03:50:45.877Z,103038.91
2022-12-19T03:53:28.797Z,103038.03
2022-12-19T03:56:08.103Z,103042.34
2022-12-19T03:58:45.537Z,103054.50
2022-12-19T04:01:12.668Z,103053.66
2022-12-19T04:03:42.077Z,103047.59
2022-12-19T04:06:14.964Z,103047.59
2022-12-19T04:08:45.634Z,103044.13
2022-12-19T04:11:18.869Z,103047.63
2022-12-19T04:13:51.633Z,103061.53
2022-12-19T04:16:23.912Z,103055.47
2022-12-19T04:19:05.663Z,103062.41
2022-12-19T04:21:47.080Z,103061.53
2022-12-19T04:24:18.811Z,103058.94
2022-12-19T04:26:50.512Z,103058.94
2022-12-19T04:29:20.133Z,103072.81
2022-12-19T04:31:50.922Z,103072.81
2022-12-19T04:34:27.924Z,103068.50
2022-12-19T04:36:56.289Z,103077.19
2022-12-19T04:39:26.265Z,103073.69
2022-12-19T04:41:54.511Z,103065.88
2022-12-19T04:44:24.038Z,103068.47
2022-12-19T04:46:53.353Z,103071.94
2022-12-19T04:49:20.739Z,103064.13
2022-12-19T04:51:49.151Z,103071.06
2022-12-19T04:54:22.797Z,103064.13
2022-12-19T04:56:49.870Z,103068.44
2022-12-19T04:59:22.730Z,103062.38
2022-12-19T05:01:50.097Z,103065.00
2022-12-19T05:04:18.811Z,103058.94
2022-12-19T05:06:46.457Z,103051.09
2022-12-19T05:10:12.074Z,103049.34
2022-12-19T05:12:41.158Z,103055.44
2022-12-19T05:15:12.219Z,103059.78
2022-12-19T05:17:38.937Z,103052.84
2022-12-19T05:20:08.086Z,103059.81
2022-12-19T05:22:37.977Z,103061.53
2022-12-19T05:25:10.345Z,103057.19
2022-12-19T05:27:39.630Z,103058.94
2022-12-19T05:30:12.636Z,103058.06
2022-12-19T05:32:39.628Z,103054.59
2022-12-19T05:35:09.594Z,103060.69
2022-12-19T05:37:36.504Z,103062.41
2022-12-19T05:40:11.637Z,103059.78
2022-12-19T05:42:44.633Z,103063.25
2022-12-19T05:45:12.162Z,103070.22
2022-12-19T05:47:39.161Z,103062.38
2022-12-19T05:50:09.354Z,103067.59
2022-12-19T05:52:36.955Z,103059.78
2022-12-19T05:55:05.480Z,103049.38
2022-12-19T05:57:34.234Z,103045.91
2022-12-19T06:00:04.747Z,103058.94
2022-12-19T06:02:32.792Z,103058.06
2022-12-19T06:05:00.303Z,103063.28
2022-12-19T06:07:27.131Z,103068.47
2022-12-19T06:09:54.373Z,103073.72
2022-12-19T06:12:21.373Z,103080.63
2022-12-19T06:14:49.973Z,103082.38
2022-12-19T06:17:16.999Z,103085.00
2022-12-19T06:19:47.029Z,103081.50
2022-12-19T06:22:13.962Z,103085.00
2022-12-19T06:24:41.468Z,103096.25
2022-12-19T06:27:08.434Z,103094.53
2022-12-19T06:29:38.050Z,103099.75
2022-12-19T06:32:09.068Z,103104.97
2022-12-19T06:37:23.067Z,103107.56
2022-12-19T06:39:50.625Z,103108.44
2022-12-19T06:42:23.642Z,103111.94
2022-12-19T06:44:52.068Z,103118.88
2022-12-19T06:47:26.852Z,103122.31
2022-12-19T06:49:58.214Z,103119.72
2022-12-19T06:52:27.333Z,103128.41
2022-12-19T06:54:56.356Z,103125.78
2022-12-19T06:57:23.212Z,103122.31
2022-12-19T06:59:50.520Z,103131.88
2022-12-19T07:02:25.927Z,103129.25
2022-12-19T07:05:01.845Z,103115.34
2022-12-19T07:07:29.170Z,103115.31
2022-12-19T07:09:56.467Z,103120.50
2022-12-19T07:12:23.364Z,103115.28
2022-12-19T07:14:53.566Z,103102.25
2022-12-19T07:17:25.895Z,103090.09
2022-12-19T07:19:57.190Z,103104.84
2022-12-19T07:22:27.079Z,103121.38
2022-12-19T07:24:57.586Z,103121.31
2022-12-19T07:27:27.314Z,103125.66
2022-12-19T07:29:59.033Z,103126.50
2022-12-19T07:32:29.205Z,103130.88
2022-12-19T07:35:00.565Z,103136.09
2022-12-19T07:37:27.548Z,103128.19
2022-12-19T07:39:57.313Z,103129.00
2022-12-19T07:42:32.135Z,103127.28
2022-12-19T07:44:59.834Z,103139.50
2022-12-19T07:47:31.118Z,103139.44
2022-12-19T07:50:05.662Z,103138.53
2022-12-19T07:52:34.797Z,103144.59
2022-12-19T07:55:02.338Z,103140.16
2022-12-19T07:57:29.474Z,103147.91
2022-12-19T07:59:58.137Z,103147.00
2022-12-19T08:02:28.421Z,103140.88
2022-12-19T08:04:59.883Z,103135.59
2022-12-19T08:07:28.861Z,103121.69
2022-12-19T08:09:56.154Z,103122.66
2022-12-19T08:12:26.990Z,103126.22
2022-12-19T08:14:57.319Z,103134.03
2022-12-19T08:17:24.515Z,103127.00
2022-12-19T08:19:52.005Z,103129.56
2022-12-19T08:22:21.425Z,103123.41
2022-12-19T08:24:50.342Z,103124.97
2022-12-19T08:27:19.160Z,103128.16
2022-12-19T08:29:47.259Z,103114.25
2022-12-19T08:32:20.779Z,103117.81
2022-12-19T08:34:49.507Z,103112.38
2022-12-19T08:37:16.640Z,103125.25
2022-12-19T08:39:46.426Z,103122.50
2022-12-19T08:42:14.471Z,103124.19
2022-12-19T08:44:41.676Z,103115.50
2022-12-19T08:47:09.524Z,103130.38
2022-12-19T08:49:41.809Z,103119.84
2022-12-19T08:52:13.775Z,103109.25
2022-12-19T08:54:41.008Z,103111.72
2022-12-19T08:57:12.347Z,103107.38
2022-12-19T08:59:41.852Z,103106.47
2022-12-19T09:02:10.887Z,103104.75
2022-12-19T09:06:00.037Z,103104.00
2022-12-19T09:07:25.355Z,103109.03
2022-12-19T09:09:54.132Z,103104.75
2022-12-19T09:12:22.465Z,103113.34
2022-12-19T09:14:49.906Z,103120.91
2022-12-19T09:17:16.985Z,103104.22
2022-12-19T09:19:45.497Z,103103.19
2022-12-19T09:22:18.048Z,103104.78
2022-12-19T09:24:50.509Z,103093.25
2022-12-19T09:27:24.479Z,103100.97
2022-12-19T09:29:59.081Z,103090.25
2022-12-19T09:32:26.905Z,103092.56
2022-12-19T09:34:54.111Z,103095.06
2022-12-19T09:37:32.195Z,103075.06
2022-12-19T09:39:59.518Z,103082.88
2022-12-19T09:43:01.994Z,103077.97
2022-12-19T09:45:40.443Z,103055.63
2022-12-19T09:48:17.334Z,103052.03
2022-12-19T09:51:10.089Z,103052.72
2022-12-19T09:53:54.258Z,103065.13
2022-12-19T09:56:46.232Z,103068.44
2022-12-19T09:59:39.906Z,103071.56
2022-12-19T10:02:23.902Z,103078.59
2022-12-19T10:05:12.472Z,103074.47
2022-12-19T10:08:07.515Z,103086.38
2022-12-19T10:12:36.393Z,103084.81
2022-12-19T10:14:01.758Z,103078.81
2022-12-19T10:16:41.674Z,103066.69
2022-12-19T10:19:12.314Z,103066.44
2022-12-19T10:25:09.290Z,103059.09
2022-12-19T10:27:59.698Z,103055.94
2022-12-19T10:30:32.421Z,103048.06
2022-12-19T10:33:20.750Z,103049.47
2022-12-19T10:36:09.593Z,103040.28
2022-12-19T10:38:46.796Z,103023.53
2022-12-19T10:41:22.445Z,103031.22
2022-12-19T10:43:59.220Z,103023.97
2022-12-19T10:46:37.416Z,103031.81
2022-12-19T10:49:19.200Z,103029.19
2022-12-19T10:51:56.942Z,103021.66
2022-12-19T10:54:33.397Z,103014.25
2022-12-19T10:57:18.685Z,103011.13
2022-12-19T11:00:07.257Z,103014.81
2022-12-19T11:02:44.593Z,103020.13
2022-12-19T11:05:40.291Z,103022.81
2022-12-19T11:08:18.955Z,103027.81
2022-12-19T11:11:57.680Z,103032.81
2022-12-19T11:19:14.332Z,103021.22
2022-12-19T11:22:14.309Z,103005.06
2022-12-19T11:28:43.336Z,103006.75
2022-12-19T11:30:05.170Z,103004.13
2022-12-19T11:30:43.170Z,102984.94
2022-12-19T11:30:47.660Z,102984.56
2022-12-19T11:34:06.838Z,102977.28
2022-12-19T11:36:39.743Z,102939.06
2022-12-19T11:39:14.305Z,102958.88
2022-12-19T11:42:10.475Z,102951.78
2022-12-19T11:44:45.228Z,102946.03
2022-12-19T11:47:25.554Z,102940.69
2022-12-19T11:49:59.716Z,102941.44
2022-12-19T11:55:39.809Z,102940.41
2022-12-19T11:58:10.276Z,102949.53
2022-12-19T12:00:45.480Z,102945.94
2022-12-19T12:03:30.541Z,102944.88
2022-12-19T12:05:58.528Z,102942.78
2022-12-19T12:12:17.373Z,102946.38
2022-12-19T12:19:05.191Z,102959.50
2022-12-19T12:26:57.709Z,102957.47
2022-12-19T12:31:00.412Z,102956.31
2022-12-19T12:31:22.342Z,102956.41
2022-12-19T12:32:04.826Z,102951.03
2022-12-19T12:32:06.160Z,102966.66
2022-12-19T12:32:06.163Z,102951.06
2022-12-19T12:35:34.425Z,102937.84
2022-12-19T12:38:52.222Z,102930.81
2022-12-19T12:41:51.109Z,102924.84
2022-12-19T12:44:18.242Z,102920.03
2022-12-19T12:47:15.033Z,102916.97
2022-12-19T12:50:03.454Z,102921.66
2022-12-19T12:52:35.585Z,102907.69
2022-12-19T12:55:04.794Z,102908.53
2022-12-19T12:57:39.917Z,102912.84
2022-12-19T13:00:19.667Z,102913.75
2022-12-19T13:02:52.716Z,102901.53
2022-12-19T13:05:39.402Z,102903.34
2022-12-19T13:08:26.031Z,102894.38
2022-12-19T13:10:57.133Z,102893.63
2022-12-19T13:13:55.062Z,102894.88
2022-12-19T13:16:55.798Z,102895.28
2022-12-19T13:19:30.126Z,102882.44
2022-12-19T13:22:21.830Z,102885.38
2022-12-19T13:24:51.427Z,102888.19
2022-12-19T13:27:48.390Z,102890.00
2022-12-19T13:30:18.362Z,102892.78
2022-12-19T13:33:12.105Z,102885.91
2022-12-19T13:37:32.175Z,102897.19
2022-12-19T13:39:54.507Z,102889.53
2022-12-19T13:41:48.171Z,102886.94
2022-12-19T13:44:22.452Z,102879.16
2022-12-19T13:46:54.957Z,102870.66
2022-12-19T13:49:30.441Z,102869.75
2022-12-19T13:52:05.270Z,102874.25
2022-12-19T13:54:38.182Z,102881.22
2022-12-19T13:57:22.016Z,102870.88
2022-12-19T13:59:59.679Z,102871.88
2022-12-19T14:02:32.595Z,102877.31
2022-12-19T14:05:22.356Z,102871.28
2022-12-19T14:08:15.948Z,102864.41
2022-12-19T14:11:39.486Z,102880.09
2022-12-19T14:14:17.739Z,102877.47
2022-12-19T14:16:52.992Z,102888.16
2022-12-19T14:19:24.950Z,102867.44
2022-12-19T14:22:05.173Z,102886.50
2022-12-19T14:24:41.450Z,102883.06
2022-12-19T14:28:18.783Z,102876.13
2022-12-19T14:30:30.486Z,102871.78
2022-12-19T14:33:43.818Z,102873.69
2022-12-19T14:36:12.307Z,102877.41
2022-12-19T14:39:23.966Z,102885.31
2022-12-19T14:42:00.877Z,102876.63
2022-12-19T14:52:25.274Z,102880.16
2022-12-19T14:54:13.499Z,102874.81
2022-12-19T14:54:15.329Z,102870.63
2022-12-19T14:54:30.698Z,102855.13
2022-12-19T14:56:43.768Z,102867.22
2022-12-19T14:58:58.524Z,102870.06
2022-12-19T15:01:28.008Z,102866.59
2022-12-19T15:04:52.199Z,102855.91
2022-12-19T15:07:07.808Z,102854.06
2022-12-19T15:11:08.239Z,102855.16
2022-12-19T15:14:54.988Z,102844.94
2022-12-19T15:15:46.206Z,102845.06
2022-12-19T15:18:20.573Z,102845.94
2022-12-19T15:20:48.073Z,102852.13
2022-12-19T15:23:19.933Z,102847.78
2022-12-19T15:26:08.775Z,102850.59
2022-12-19T15:28:41.139Z,102855.84
2022-12-19T15:31:24.406Z,102848.81
2022-12-19T15:34:33.030Z,102843.59
2022-12-19T15:36:46.535Z,102853.22
2022-12-19T15:39:15.085Z,102855.03
2022-12-19T15:41:44.564Z,102853.31
2022-12-19T15:44:16.560Z,102861.28
2022-12-19T15:46:49.078Z,102859.63
2022-12-19T15:49:18.202Z,102863.28
2022-12-19T15:51:46.208Z,102859.75
2022-12-19T15:57:01.044Z,102863.31
2022-12-19T15:59:37.477Z,102848.53
2022-12-19T16:02:23.248Z,102853.69
2022-12-19T16:04:52.303Z,102844.19
2022-12-19T16:07:25.284Z,102858.06
2022-12-19T16:09:52.488Z,102860.78
2022-12-19T16:12:25.139Z,102865.31
2022-12-19T16:14:56.767Z,102855.06
2022-12-19T16:17:32.136Z,102849.13
2022-12-19T16:19:59.161Z,102858.78
2022-12-19T16:22:33.103Z,102857.88
2022-12-19T16:25:00.006Z,102859.59
2022-12-19T16:27:33.936Z,102858.69
2022-12-19T16:30:18.642Z,102849.13
2022-12-19T16:32:50.725Z,102853.47
2022-12-19T16:35:40.218Z,102856.94
2022-12-19T16:38:09.957Z,102856.16
2022-12-19T16:40:39.687Z,102850.94
2022-12-19T16:43:15.568Z,102844.00
2022-12-19T16:45:45.521Z,102855.50
2022-12-19T16:48:20.645Z,102849.56
2022-12-19T16:50:49.261Z,102846.19
2022-12-19T16:53:20.003Z,102849.72
2022-12-19T16:55:49.024Z,102851.56
2022-12-19T16:58:21.560Z,102849.00
2022-12-19T17:00:51.896Z,102854.28
2022-12-19T17:03:28.385Z,102856.19
2022-12-19T17:05:56.002Z,102852.91
2022-12-19T17:08:23.557Z,102858.16
2022-12-19T17:10:50.653Z,102845.16
2022-12-19T17:13:17.961Z,102849.50
2022-12-19T17:15:48.614Z,102843.63
2022-12-19T17:18:33.252Z,102844.56
2022-12-19T17:21:00.265Z,102841.13
2022-12-19T17:23:31.016Z,102839.41
2022-12-19T17:26:00.338Z,102830.78
2022-12-19T17:28:28.713Z,102839.53
2022-12-19T17:30:58.950Z,102846.72
2022-12-19T17:33:46.615Z,102846.81
2022-12-19T17:36:18.397Z,102845.25
2022-12-19T17:38:48.600Z,102855.63
2022-12-19T17:41:18.882Z,102860.88
2022-12-19T17:43:46.437Z,102852.19
2022-12-19T17:46:18.290Z,102859.19
2022-12-19T17:48:50.121Z,102864.44
2022-12-19T17:51:23.297Z,102862.69
2022-12-19T17:53:53.123Z,102846.91
2022-12-19T17:56:20.883Z,102845.19
2022-12-19T17:58:48.993Z,102846.13
2022-12-19T18:01:20.278Z,102833.91
2022-12-19T18:03:50.980Z,102837.34
2022-12-19T18:06:18.564Z,102832.09
2022-12-19T18:08:45.905Z,102832.09
2022-12-19T18:11:18.809Z,102832.19
2022-12-19T18:13:52.892Z,102834.06
2022-12-19T18:16:24.042Z,102837.69
2022-12-19T18:18:52.852Z,102812.59
2022-12-19T18:21:22.136Z,102831.56
2022-12-19T18:23:49.734Z,102827.31
2022-12-19T18:26:18.913Z,102826.38
2022-12-19T18:28:46.083Z,102833.47
2022-12-19T18:31:18.254Z,102831.69
2022-12-19T18:33:47.553Z,102831.53
2022-12-19T18:36:22.277Z,102831.47
2022-12-19T18:38:53.898Z,102832.28
2022-12-19T18:41:26.224Z,102831.50
2022-12-19T18:44:00.032Z,102829.00
2022-12-19T18:46:28.482Z,102824.63
2022-12-19T18:48:56.952Z,102823.78
2022-12-19T18:51:27.923Z,102821.06
2022-12-19T18:54:02.310Z,102822.72
2022-12-19T18:56:29.993Z,102822.72
2022-12-19T18:58:58.524Z,102820.28
2022-12-19T19:01:46.707Z,102802.22
2022-12-19T19:04:17.851Z,102819.53
2022-12-19T19:06:51.486Z,102819.38
2022-12-19T19:09:20.722Z,102814.94
2022-12-19T19:11:47.674Z,102820.09
2022-12-19T19:14:17.863Z,102819.22
2022-12-19T19:16:47.996Z,102807.88
2022-12-19T19:19:20.131Z,102810.41
2022-12-19T19:21:54.010Z,102814.66
2022-12-19T19:24:22.682Z,102809.44
2022-12-19T19:26:52.117Z,102811.31
2022-12-19T19:29:19.794Z,102811.41
2022-12-19T19:31:48.731Z,102815.06
2022-12-19T19:34:22.085Z,102818.66
2022-12-19T19:36:54.912Z,102808.28
2022-12-19T19:39:23.273Z,102804.97
2022-12-19T19:41:53.779Z,102808.44
2022-12-19T19:44:21.016Z,102799.63
2022-12-19T19:46:51.387Z,102802.34
2022-12-19T19:49:19.989Z,102795.47
2022-12-19T19:51:52.376Z,102807.63
2022-12-19T19:54:25.903Z,102803.16
2022-12-19T19:56:53.035Z,102772.06
2022-12-19T19:59:21.411Z,102801.53
2022-12-19T20:01:54.324Z,102799.88
2022-12-19T20:04:31.212Z,102795.63
2022-12-19T20:06:59.563Z,102794.81
2022-12-19T20:09:29.656Z,102812.34
2022-12-19T20:11:57.314Z,102801.13
2022-12-19T20:14:26.595Z,102805.47
2022-12-19T20:16:56.560Z,102801.19
2022-12-19T20:19:27.369Z,102813.34
2022-12-19T20:21:57.472Z,102814.22
2022-12-19T20:24:30.835Z,102822.06
2022-12-19T20:27:00.998Z,102815.88
2022-12-19T20:29:30.994Z,102806.31
2022-12-19T20:31:58.091Z,102811.53
2022-12-19T20:34:27.750Z,102801.13
2022-12-19T20:36:57.569Z,102803.81
2022-12-19T20:39:27.937Z,102815.19
2022-12-19T20:41:57.836Z,102808.97
2022-12-19T20:44:27.901Z,102797.72
2022-12-19T20:46:55.857Z,102798.50
2022-12-19T20:49:23.810Z,102796.78
2022-12-19T20:51:50.849Z,102798.50
2022-12-19T20:54:21.878Z,102788.13
2022-12-19T20:56:49.266Z,102797.63
2022-12-19T20:59:17.864Z,102808.16
2022-12-19T21:01:47.155Z,102810.75
2022-12-19T21:04:15.646Z,102808.09
2022-12-19T21:06:47.600Z,102803.66
2022-12-19T21:09:15.368Z,102810.59
2022-12-19T21:11:42.364Z,102813.16
2022-12-19T21:14:14.883Z,102801.94
2022-12-19T21:16:46.346Z,102808.81
2022-12-19T21:19:13.871Z,102794.09
2022-12-19T21:21:46.476Z,102803.66
2022-12-19T21:24:13.959Z,102811.50
2022-12-19T21:26:45.141Z,102809.69
2022-12-19T21:29:12.851Z,102799.16
2022-12-19T21:31:42.965Z,102800.94
2022-12-19T21:34:13.999Z,102808.81
2022-12-19T21:36:40.838Z,102797.56
2022-12-19T21:39:09.795Z,102804.66
2022-12-19T21:41:39.596Z,102807.44
2022-12-19T21:44:09.359Z,102801.53
2022-12-19T21:46:37.470Z,102803.38
2022-12-19T21:49:08.731Z,102800.88
2022-12-19T21:51:36.990Z,102800.06
2022-12-19T21:54:05.068Z,102798.38
2022-12-19T21:56:34.457Z,102802.72
2022-12-19T21:59:04.854Z,102794.00
2022-12-19T22:01:32.655Z,102782.72
2022-12-19T22:04:06.266Z,102792.34
2022-12-19T22:06:41.516Z,102762.03
2022-12-19T22:09:15.398Z,102796.63
2022-12-19T22:11:46.032Z,102798.44
2022-12-19T22:14:16.444Z,102763.69
2022-12-19T22:16:43.729Z,102785.41
2022-12-19T22:19:13.999Z,102775.75
2022-12-19T22:21:42.387Z,102785.31
2022-12-19T22:24:11.847Z,102777.47
2022-12-19T22:26:39.308Z,102775.69
2022-12-19T22:29:08.388Z,102768.75
2022-12-19T22:31:38.569Z,102767.91
2022-12-19T22:34:13.745Z,102762.72
2022-12-19T22:36:45.256Z,102767.88
2022-12-19T22:39:13.831Z,102763.59
2022-12-19T22:41:41.800Z,102765.44
2022-12-19T22:44:16.103Z,102769.84
2022-12-19T22:46:46.579Z,102766.34
2022-12-19T22:49:14.284Z,102765.47
2022-12-19T22:51:42.909Z,102759.34
2022-12-19T22:54:12.906Z,102759.28
2022-12-19T22:56:42.414Z,102755.00
2022-12-19T22:59:14.641Z,102748.97
2022-12-19T23:01:43.633Z,102749.91
2022-12-19T23:04:21.440Z,102742.09
2022-12-19T23:06:48.514Z,102739.47
2022-12-19T23:09:22.053Z,102738.59
2022-12-19T23:11:49.661Z,102725.56
2022-12-19T23:14:19.740Z,102732.41
2022-12-19T23:16:51.710Z,102743.72
2022-12-19T23:19:25.067Z,102725.44
2022-12-19T23:21:51.936Z,102734.16
2022-12-19T23:24:24.457Z,102730.72
2022-12-19T23:26:58.000Z,102741.22
2022-12-19T23:29:25.522Z,102735.16
2022-12-19T23:31:55.241Z,102726.53
2022-12-19T23:34:27.953Z,102728.31
2022-12-19T23:37:13.163Z,102726.63
2022-12-19T23:39:44.253Z,102723.19
2022-12-19T23:42:14.082Z,102722.34
2022-12-19T23:44:41.294Z,102714.53
2022-12-19T23:47:08.340Z,102719.72
2022-12-19T23:49:38.849Z,102722.34
2022-12-19T23:52:11.364Z,102715.41
2022-12-19T23:54:40.683Z,102724.09
2022-12-19T23:57:10.277Z,102708.47
2022-12-19T23:59:39.430Z,102725.03
